createdAt,value
2023-02-05T00:00:14.449Z,68.84
2023-02-05T00:03:17.758Z,68.80
2023-02-05T00:06:20.359Z,68.89
2023-02-05T00:09:24.482Z,68.89
2023-02-05T00:12:27.067Z,68.70
2023-02-05T00:15:29.702Z,68.29
2023-02-05T00:18:32.422Z,68.36
2023-02-05T00:21:35.409Z,68.02
2023-02-05T00:24:38.873Z,67.95
2023-02-05T00:27:41.573Z,67.75
2023-02-05T00:30:44.307Z,67.31
2023-02-05T00:33:49.081Z,67.95
2023-02-05T00:36:51.626Z,68.03
2023-02-05T00:39:54.212Z,67.86
2023-02-05T00:42:56.755Z,68.20
2023-02-05T00:45:59.858Z,67.93
2023-02-05T00:49:02.444Z,67.69
2023-02-05T00:52:05.339Z,67.87
2023-02-05T00:55:08.544Z,67.48
2023-02-05T00:58:11.268Z,67.31
2023-02-05T01:01:15.992Z,67.75
2023-02-05T01:04:18.845Z,68.37
2023-02-05T01:07:22.436Z,69.26
2023-02-05T01:10:25.322Z,69.68
2023-02-05T01:13:28.133Z,71.18
2023-02-05T01:16:30.697Z,70.65
2023-02-05T01:19:34.969Z,72.34
2023-02-05T01:22:37.866Z,72.83
2023-02-05T01:25:40.413Z,72.84
2023-02-05T01:28:44.870Z,71.33
2023-02-05T01:31:47.642Z,70.51
2023-02-05T01:34:50.315Z,70.67
2023-02-05T01:37:52.911Z,70.30
2023-02-05T01:40:55.423Z,69.97
2023-02-05T01:44:19.056Z,69.48
2023-02-05T01:47:21.610Z,69.66
2023-02-05T01:50:31.498Z,68.79
2023-02-05T01:53:35.975Z,69.20
2023-02-05T01:56:50.026Z,68.59
2023-02-05T01:59:52.597Z,69.73
2023-02-05T02:02:55.128Z,70.09
2023-02-05T02:05:58.137Z,69.90
2023-02-05T02:09:03.020Z,69.91
2023-02-05T02:12:05.725Z,69.78
2023-02-05T02:15:13.629Z,69.66
2023-02-05T02:18:29.371Z,69.50
2023-02-05T02:21:41.805Z,69.76
2023-02-05T02:25:07.408Z,70.03
2023-02-05T02:28:29.412Z,70.36
2023-02-05T02:31:40.153Z,70.55
2023-02-05T02:34:50.174Z,70.61
2023-02-05T02:37:58.300Z,70.82
2023-02-05T02:41:18.458Z,70.72
2023-02-05T02:44:35.760Z,70.84
2023-02-05T02:47:42.858Z,71.32
2023-02-05T02:50:48.018Z,71.37
2023-02-05T02:53:56.097Z,71.69
2023-02-05T02:56:59.761Z,72.27
2023-02-05T03:00:04.632Z,72.37
2023-02-05T03:03:09.466Z,72.46
2023-02-05T03:06:13.137Z,73.00
2023-02-05T03:09:22.939Z,73.40
2023-02-05T03:12:26.054Z,73.65
2023-02-05T03:15:29.915Z,74.26
2023-02-05T03:18:32.926Z,74.65
2023-02-05T03:21:42.142Z,74.08
2023-02-05T03:24:44.758Z,74.29
2023-02-05T03:27:48.107Z,75.09
2023-02-05T03:31:10.252Z,75.47
2023-02-05T03:34:35.510Z,76.27
2023-02-05T03:37:53.765Z,77.94
2023-02-05T03:41:16.403Z,77.77
2023-02-05T03:44:28.765Z,79.79
2023-02-05T03:47:35.286Z,80.32
2023-02-05T03:50:44.635Z,81.08
2023-02-05T03:54:05.439Z,81.19
2023-02-05T03:57:30.958Z,82.79
2023-02-05T04:00:35.661Z,83.09
2023-02-05T04:03:39.820Z,82.89
2023-02-05T04:06:43.179Z,84.69
2023-02-05T04:09:45.806Z,85.66
2023-02-05T04:12:49.873Z,86.79
2023-02-05T04:15:53.635Z,88.55
2023-02-05T04:18:56.183Z,88.34
2023-02-05T04:21:58.910Z,88.92
2023-02-05T04:25:01.687Z,89.79
2023-02-05T04:28:06.111Z,89.52
2023-02-05T04:31:11.733Z,89.84
2023-02-05T04:34:15.679Z,90.35
2023-02-05T04:37:18.719Z,91.21
2023-02-05T04:40:21.477Z,92.08
2023-02-05T04:43:23.994Z,92.88
2023-02-05T04:46:27.394Z,93.79
2023-02-05T04:49:32.547Z,95.82
2023-02-05T04:52:35.185Z,97.08
2023-02-05T04:55:37.664Z,98.42
2023-02-05T04:58:40.658Z,98.38
2023-02-05T05:01:44.084Z,96.86
2023-02-05T05:04:46.610Z,97.16
2023-02-05T05:07:49.467Z,95.94
2023-02-05T05:10:51.973Z,95.08
2023-02-05T05:13:54.657Z,93.04
2023-02-05T05:16:57.242Z,91.50
2023-02-05T05:19:59.732Z,90.05
2023-02-05T05:23:02.297Z,88.55
2023-02-05T05:26:07.987Z,88.86
2023-02-05T05:29:13.110Z,88.43
2023-02-05T05:32:15.677Z,89.23
2023-02-05T05:35:19.641Z,89.79
2023-02-05T05:38:22.233Z,88.46
2023-02-05T05:41:43.738Z,88.76
2023-02-05T05:44:50.273Z,88.31
2023-02-05T05:47:52.819Z,88.42
2023-02-05T05:50:55.968Z,87.93
2023-02-05T05:53:58.730Z,88.29
2023-02-05T05:57:02.838Z,87.82
2023-02-05T06:00:06.451Z,87.10
2023-02-05T06:03:14.601Z,86.81
2023-02-05T06:06:17.221Z,87.03
2023-02-05T06:09:21.791Z,86.66
2023-02-05T06:12:24.317Z,86.33
2023-02-05T06:15:27.096Z,86.87
2023-02-05T06:18:30.221Z,87.12
2023-02-05T06:21:35.157Z,87.65
2023-02-05T06:24:37.860Z,87.86
2023-02-05T06:27:41.958Z,87.34
2023-02-05T06:30:44.664Z,87.30
2023-02-05T06:33:47.289Z,86.56
2023-02-05T06:36:50.002Z,85.55
2023-02-05T06:39:52.572Z,85.47
2023-02-05T06:42:57.237Z,84.97
2023-02-05T06:45:59.853Z,83.95
2023-02-05T06:49:04.839Z,83.24
2023-02-05T06:52:07.646Z,83.48
2023-02-05T06:55:11.474Z,82.25
2023-02-05T06:58:15.162Z,81.19
2023-02-05T07:01:19.199Z,80.16
2023-02-05T07:04:21.949Z,78.31
2023-02-05T07:07:24.891Z,77.02
2023-02-05T07:10:27.723Z,76.76
2023-02-05T07:13:30.651Z,76.31
2023-02-05T07:16:34.251Z,76.43
2023-02-05T07:19:37.274Z,77.38
2023-02-05T07:22:45.149Z,77.19
2023-02-05T07:25:47.938Z,77.20
2023-02-05T07:28:50.694Z,77.43
2023-02-05T07:31:53.468Z,77.44
2023-02-05T07:34:58.164Z,77.78
2023-02-05T07:38:00.911Z,77.79
2023-02-05T07:41:08.065Z,78.25
2023-02-05T07:44:10.802Z,78.37
2023-02-05T07:47:15.039Z,77.52
2023-02-05T07:50:18.103Z,77.14
2023-02-05T07:53:22.402Z,76.22
2023-02-05T07:56:26.201Z,74.77
2023-02-05T07:59:30.241Z,75.82
2023-02-05T08:02:32.889Z,74.23
2023-02-05T08:05:39.427Z,73.14
2023-02-05T08:08:42.585Z,72.17
2023-02-05T08:11:47.280Z,72.02
2023-02-05T08:14:50.336Z,72.13
2023-02-05T08:17:55.492Z,72.51
2023-02-05T08:20:58.353Z,72.70
2023-02-05T08:24:01.915Z,72.82
2023-02-05T08:27:05.020Z,71.67
2023-02-05T08:30:11.724Z,71.24
2023-02-05T08:33:17.612Z,70.79
2023-02-05T08:36:20.593Z,70.06
2023-02-05T08:39:25.370Z,70.56
2023-02-05T08:42:28.582Z,68.23
2023-02-05T08:45:33.656Z,68.73
2023-02-05T08:48:36.954Z,67.45
2023-02-05T08:51:43.719Z,67.12
2023-02-05T08:54:49.737Z,66.14
2023-02-05T08:57:53.217Z,63.34
2023-02-05T09:01:04.026Z,61.84
2023-02-05T09:04:08.112Z,61.70
2023-02-05T09:07:11.273Z,60.67
2023-02-05T09:10:15.190Z,60.48
2023-02-05T09:13:18.566Z,59.39
2023-02-05T09:16:23.254Z,59.81
2023-02-05T09:19:26.369Z,57.38
2023-02-05T09:22:29.433Z,58.97
2023-02-05T09:25:35.231Z,58.08
2023-02-05T09:28:39.583Z,57.32
2023-02-05T09:31:42.987Z,56.88
2023-02-05T09:34:46.291Z,57.38
2023-02-05T09:37:49.852Z,58.13
2023-02-05T09:41:25.905Z,58.23
2023-02-05T09:44:55.441Z,57.83
2023-02-05T09:48:37.136Z,58.12
2023-02-05T09:51:52.361Z,58.47
2023-02-05T09:55:00.640Z,56.30
2023-02-05T09:58:09.524Z,57.59
2023-02-05T10:01:24.589Z,57.20
2023-02-05T10:04:28.958Z,57.22
2023-02-05T10:07:52.193Z,56.74
2023-02-05T10:10:59.677Z,57.13
2023-02-05T10:14:26.845Z,57.16
2023-02-05T10:18:01.171Z,57.20
2023-02-05T10:21:26.797Z,57.21
2023-02-05T10:24:53.004Z,57.43
2023-02-05T10:28:31.928Z,58.48
2023-02-05T10:31:52.021Z,58.66
2023-02-05T10:35:18.150Z,59.00
2023-02-05T10:38:29.186Z,60.10
2023-02-05T10:41:50.970Z,60.46
2023-02-05T10:45:06.169Z,58.71
2023-02-05T10:48:36.057Z,58.64
2023-02-05T10:51:43.257Z,58.61
2023-02-05T10:54:48.145Z,58.54
2023-02-05T10:57:51.015Z,57.89
2023-02-05T11:00:55.861Z,57.52
2023-02-05T11:04:00.549Z,56.96
2023-02-05T11:07:06.699Z,57.12
2023-02-05T11:10:19.083Z,57.18
2023-02-05T11:13:23.965Z,57.01
2023-02-05T11:16:37.284Z,57.20
2023-02-05T11:19:40.664Z,56.53
2023-02-05T11:22:43.864Z,56.43
2023-02-05T11:25:52.584Z,56.24
2023-02-05T11:28:57.946Z,57.33
2023-02-05T11:32:01.248Z,56.40
2023-02-05T11:35:10.276Z,57.79
2023-02-05T11:38:46.054Z,56.36
2023-02-05T11:41:49.453Z,57.30
2023-02-05T11:44:59.348Z,57.04
2023-02-05T11:48:05.956Z,56.96
2023-02-05T11:51:15.607Z,57.56
2023-02-05T11:54:33.159Z,56.72
2023-02-05T11:57:42.250Z,56.94
2023-02-05T12:01:24.955Z,56.45
2023-02-05T12:04:32.349Z,57.71
2023-02-05T12:07:49.960Z,57.92
2023-02-05T12:11:02.328Z,58.81
2023-02-05T12:14:28.503Z,57.72
2023-02-05T12:17:59.017Z,57.42
2023-02-05T12:21:25.996Z,57.95
2023-02-05T12:24:50.818Z,58.01
2023-02-05T12:28:24.261Z,57.50
2023-02-05T12:31:40.322Z,57.38
2023-02-05T12:35:02.587Z,58.02
2023-02-05T12:38:32.114Z,56.37
2023-02-05T12:42:08.913Z,55.31
2023-02-05T12:45:46.754Z,55.14
2023-02-05T12:49:36.599Z,56.43
2023-02-05T12:53:12.655Z,55.38
2023-02-05T12:56:37.721Z,55.78
2023-02-05T13:00:22.749Z,54.73
2023-02-05T13:04:01.281Z,56.17
2023-02-05T13:07:42.172Z,55.44
2023-02-05T13:11:10.444Z,56.38
2023-02-05T13:15:07.605Z,56.08
2023-02-05T13:18:39.919Z,56.73
2023-02-05T13:22:11.217Z,56.22
2023-02-05T13:25:41.029Z,56.07
2023-02-05T13:29:21.926Z,56.47
2023-02-05T13:32:38.985Z,55.94
2023-02-05T13:36:21.331Z,55.73
2023-02-05T13:40:08.538Z,56.38
2023-02-05T13:43:18.821Z,55.74
2023-02-05T13:46:41.494Z,55.47
2023-02-05T13:50:26.926Z,56.07
2023-02-05T13:54:15.226Z,56.62
2023-02-05T13:58:05.294Z,56.43
2023-02-05T14:01:35.036Z,56.52
2023-02-05T14:04:54.078Z,56.17
2023-02-05T14:08:05.053Z,56.47
2023-02-05T14:11:09.593Z,56.39
2023-02-05T14:14:31.158Z,56.81
2023-02-05T14:17:56.323Z,57.02
2023-02-05T14:21:00.540Z,57.60
2023-02-05T14:24:49.443Z,57.82
2023-02-05T14:27:58.791Z,58.36
2023-02-05T14:31:42.758Z,58.02
2023-02-05T14:34:50.229Z,57.99
2023-02-05T14:38:01.764Z,58.00
2023-02-05T14:41:13.893Z,58.36
2023-02-05T14:44:30.936Z,59.11
2023-02-05T14:47:37.576Z,59.50
2023-02-05T14:50:45.179Z,59.21
2023-02-05T14:54:17.571Z,59.08
2023-02-05T14:57:38.866Z,59.65
2023-02-05T15:00:46.587Z,59.87
2023-02-05T15:03:57.486Z,59.88
2023-02-05T15:07:13.485Z,60.16
2023-02-05T15:10:22.764Z,60.44
2023-02-05T15:13:32.742Z,60.73
2023-02-05T15:16:39.119Z,60.29
2023-02-05T15:19:51.977Z,60.46
2023-02-05T15:23:30.743Z,60.85
2023-02-05T15:26:40.426Z,61.20
2023-02-05T15:29:57.834Z,60.84
2023-02-05T15:33:30.407Z,61.32
2023-02-05T15:36:46.568Z,61.61
2023-02-05T15:40:11.423Z,61.96
2023-02-05T15:43:20.946Z,61.74
2023-02-05T15:46:27.961Z,62.23
2023-02-05T15:49:48.266Z,62.79
2023-02-05T15:52:57.800Z,62.23
2023-02-05T15:56:27.289Z,62.02
2023-02-05T15:59:32.710Z,62.75
2023-02-05T16:02:37.486Z,62.63
2023-02-05T16:06:02.318Z,63.05
2023-02-05T16:09:21.322Z,63.65
2023-02-05T16:12:29.013Z,63.54
2023-02-05T16:16:09.751Z,63.61
2023-02-05T16:19:22.860Z,63.50
2023-02-05T16:22:29.147Z,63.65
2023-02-05T16:25:38.832Z,64.05
2023-02-05T16:28:58.283Z,64.03
2023-02-05T16:32:21.062Z,63.64
2023-02-05T16:35:41.745Z,63.42
2023-02-05T16:38:55.800Z,63.80
2023-02-05T16:42:29.233Z,63.62
2023-02-05T16:45:35.485Z,62.88
2023-02-05T16:48:48.427Z,64.13
2023-02-05T16:52:00.761Z,63.46
2023-02-05T16:55:35.390Z,63.33
2023-02-05T16:58:46.603Z,63.44
2023-02-05T17:01:55.427Z,63.43
2023-02-05T17:05:02.862Z,64.61
2023-02-05T17:08:09.684Z,64.55
2023-02-05T17:11:32.617Z,64.12
2023-02-05T17:14:36.454Z,64.33
2023-02-05T17:17:59.303Z,63.93
2023-02-05T17:21:25.713Z,64.13
2023-02-05T17:24:29.398Z,64.74
2023-02-05T17:27:40.073Z,64.40
2023-02-05T17:30:47.509Z,64.25
2023-02-05T17:33:51.446Z,65.16
2023-02-05T17:36:56.867Z,63.65
2023-02-05T17:40:01.284Z,64.15
2023-02-05T17:43:04.749Z,63.09
2023-02-05T17:46:14.892Z,63.28
2023-02-05T17:49:21.170Z,63.27
2023-02-05T17:52:24.451Z,63.29
2023-02-05T17:55:28.837Z,63.00
2023-02-05T17:58:32.233Z,63.13
2023-02-05T18:01:38.266Z,62.95
2023-02-05T18:04:43.898Z,63.19
2023-02-05T18:07:54.373Z,63.07
2023-02-05T18:10:57.845Z,62.76
2023-02-05T18:14:07.364Z,62.10
2023-02-05T18:17:12.535Z,62.34
2023-02-05T18:20:20.728Z,62.75
2023-02-05T18:23:29.020Z,62.86
2023-02-05T18:26:32.271Z,62.80
2023-02-05T18:29:48.621Z,63.08
2023-02-05T18:32:52.265Z,63.68
2023-02-05T18:36:06.254Z,63.97
2023-02-05T18:39:10.923Z,64.03
2023-02-05T18:42:15.117Z,63.93
2023-02-05T18:45:18.381Z,64.37
2023-02-05T18:48:24.174Z,64.43
2023-02-05T18:51:30.139Z,64.57
2023-02-05T18:54:40.726Z,64.65
2023-02-05T18:57:44.204Z,64.57
2023-02-05T19:00:50.189Z,64.67
2023-02-05T19:03:55.921Z,64.74
2023-02-05T19:06:59.983Z,64.42
2023-02-05T19:10:04.221Z,64.75
2023-02-05T19:13:07.185Z,65.29
2023-02-05T19:16:13.884Z,64.88
2023-02-05T19:19:22.133Z,65.13
2023-02-05T19:22:28.652Z,65.41
2023-02-05T19:25:33.486Z,65.72
2023-02-05T19:28:38.522Z,65.73
2023-02-05T19:31:42.354Z,65.81
2023-02-05T19:34:47.759Z,65.82
2023-02-05T19:37:50.724Z,66.08
2023-02-05T19:40:57.608Z,66.38
2023-02-05T19:44:05.006Z,66.43
2023-02-05T19:47:11.870Z,66.52
2023-02-05T19:50:15.456Z,66.49
2023-02-05T19:53:22.075Z,66.97
2023-02-05T19:56:29.457Z,67.13
2023-02-05T19:59:34.255Z,66.55
2023-02-05T20:02:40.062Z,67.03
2023-02-05T20:05:44.351Z,66.79
2023-02-05T20:08:48.769Z,66.89
2023-02-05T20:11:54.865Z,66.48
2023-02-05T20:14:58.495Z,66.77
2023-02-05T20:18:02.035Z,66.89
2023-02-05T20:21:11.608Z,67.36
2023-02-05T20:24:16.851Z,67.69
2023-02-05T20:27:21.827Z,67.03
2023-02-05T20:30:50.815Z,67.62
2023-02-05T20:33:53.797Z,67.47
2023-02-05T20:37:06.689Z,67.75
2023-02-05T20:40:15.456Z,67.58
2023-02-05T20:43:19.332Z,67.30
2023-02-05T20:46:23.847Z,66.88
2023-02-05T20:49:27.364Z,67.08
2023-02-05T20:52:32.430Z,67.02
2023-02-05T20:55:35.377Z,67.01
2023-02-05T20:58:40.053Z,67.62
2023-02-05T21:01:43.289Z,67.41
2023-02-05T21:04:48.272Z,67.30
2023-02-05T21:07:51.470Z,67.28
2023-02-05T21:10:56.218Z,67.57
2023-02-05T21:14:00.042Z,67.76
2023-02-05T21:17:03.285Z,67.55
2023-02-05T21:20:06.752Z,67.59
2023-02-05T21:23:12.357Z,68.68
2023-02-05T21:26:41.058Z,68.06
2023-02-05T21:29:45.836Z,68.33
2023-02-05T21:32:52.920Z,68.03
2023-02-05T21:35:56.999Z,68.10
2023-02-05T21:39:00.296Z,67.85
2023-02-05T21:42:04.029Z,68.00
2023-02-05T21:45:09.655Z,67.62
2023-02-05T21:48:13.584Z,67.46
2023-02-05T21:51:17.314Z,67.05
2023-02-05T21:54:25.618Z,66.41
2023-02-05T21:57:30.520Z,66.05
2023-02-05T22:00:33.528Z,66.26
2023-02-05T22:03:38.693Z,65.98
2023-02-05T22:06:41.953Z,65.74
2023-02-05T22:09:47.739Z,65.80
2023-02-05T22:12:50.352Z,65.51
2023-02-05T22:16:08.764Z,65.36
2023-02-05T22:19:13.003Z,65.12
2023-02-05T22:22:15.897Z,64.88
2023-02-05T22:25:19.902Z,64.86
2023-02-05T22:28:22.709Z,65.17
2023-02-05T22:31:27.925Z,65.29
2023-02-05T22:34:30.593Z,65.04
2023-02-05T22:37:35.469Z,65.70
2023-02-05T22:40:40.588Z,66.48
2023-02-05T22:43:44.632Z,65.94
2023-02-05T22:46:47.301Z,65.00
2023-02-05T22:49:50.857Z,65.52
2023-02-05T22:52:53.486Z,65.69
2023-02-05T22:55:56.607Z,65.60
2023-02-05T22:59:03.065Z,66.05
2023-02-05T23:02:08.269Z,66.48
2023-02-05T23:05:11.504Z,65.90
2023-02-05T23:08:15.277Z,65.85
2023-02-05T23:11:18.160Z,65.24
2023-02-05T23:14:21.592Z,65.12
2023-02-05T23:17:24.163Z,65.47
2023-02-05T23:20:27.520Z,66.00
2023-02-05T23:23:30.241Z,66.26
2023-02-05T23:26:38.734Z,67.12
2023-02-05T23:29:41.310Z,67.45
2023-02-05T23:32:44.609Z,67.59
2023-02-05T23:35:47.839Z,66.52
2023-02-05T23:38:53.072Z,68.27
2023-02-05T23:41:55.691Z,69.09
2023-02-05T23:44:58.443Z,68.53
2023-02-05T23:48:01.933Z,67.97
2023-02-05T23:51:04.569Z,69.01
2023-02-05T23:54:10.139Z,69.69
2023-02-05T23:57:12.788Z,69.57
